Time;durP1;ratioP1;P1;durP2;ratioP2;P2;SDS_P1;SDS_P2;PMS_P1;PMS_P2;Temp;Humidity;BMP_temperature;BMP_pressure;BME280_temperature;BME280_humidity;BME280_pressure;Samples;Min_cycle;Max_cycle;Signal;HPM_P1;HPM_P2
2021/11/27 00:01:01;;;;;;;49.90;21.25;;;;;;;6.19;81.63;98667.16;4894225;29;20027;-46
2021/11/27 00:03:27;;;;;;;44.80;20.95;;;;;;;6.24;82.28;98670.03;4893927;29;20117;-48
2021/11/27 00:05:53;;;;;;;45.67;20.40;;;;;;;6.04;82.72;98661.25;4893911;29;20371;-48
2021/11/27 00:08:18;;;;;;;43.92;20.50;;;;;;;6.03;83.03;98668.34;4893908;29;20506;-48
2021/11/27 00:10:45;;;;;;;45.92;21.40;;;;;;;6.10;82.48;98657.81;4894128;29;20043;-46
2021/11/27 00:13:10;;;;;;;47.45;22.00;;;;;;;6.13;84.44;98644.19;4893944;29;20059;-50
2021/11/27 00:15:36;;;;;;;50.85;22.50;;;;;;;6.91;82.46;98634.81;4894550;29;20052;-48
2021/11/27 00:18:02;;;;;;;45.72;21.85;;;;;;;6.66;81.89;98635.44;4894386;29;20112;-48
2021/11/27 00:20:33;;;;;;;47.13;21.48;;;;;;;6.37;82.56;98645.41;4894474;29;20025;-48
2021/11/27 00:22:59;;;;;;;46.38;21.90;;;;;;;6.38;82.42;98641.78;4893947;29;20496;-47
2021/11/27 00:25:24;;;;;;;49.45;22.70;;;;;;;6.39;82.56;98646.03;4893876;29;20029;-49
2021/11/27 00:27:50;;;;;;;49.17;21.83;;;;;;;6.25;84.29;98636.47;4893927;29;20033;-47
2021/11/27 00:30:18;;;;;;;47.38;20.17;;;;;;;6.43;83.34;98649.09;4894004;29;20028;-47
2021/11/27 00:32:44;;;;;;;46.20;20.80;;;;;;;6.22;84.23;98642.16;4893353;29;20485;-46
2021/11/27 00:35:09;;;;;;;44.28;19.05;;;;;;;6.20;84.08;98655.56;4892924;29;20080;-47
2021/11/27 00:37:35;;;;;;;46.67;21.30;;;;;;;6.20;85.00;98657.41;4893736;29;20104;-49
2021/11/27 00:40:01;;;;;;;45.53;20.60;;;;;;;6.42;83.42;98656.22;4893795;29;20379;-47
2021/11/27 00:42:27;;;;;;;49.47;21.67;;;;;;;6.40;83.81;98658.25;4893765;29;20417;-47
2021/11/27 00:44:52;;;;;;;50.90;21.80;;;;;;;6.31;84.13;98670.03;4893957;29;20028;-47
2021/11/27 00:47:18;;;;;;;48.88;21.73;;;;;;;6.09;83.94;98650.88;4894290;29;20434;-38
2021/11/27 00:49:43;;;;;;;46.97;22.25;;;;;;;6.34;82.85;98650.28;4897611;29;20032;-38
2021/11/27 00:52:09;;;;;;;48.53;21.65;;;;;;;6.28;83.00;98657.19;4897627;29;20024;-37
2021/11/27 00:54:34;;;;;;;48.42;22.52;;;;;;;6.29;82.63;98652.75;4897698;29;20028;-38
2021/11/27 00:57:00;;;;;;;47.38;21.17;;;;;;;6.22;83.63;98648.25;4897528;29;20029;-38
2021/11/27 00:59:25;;;;;;;48.05;21.67;;;;;;;6.18;83.44;98649.66;4897668;29;20028;-38
2021/11/27 01:01:51;;;;;;;52.88;23.67;;;;;;;6.06;84.48;98664.50;4897439;29;20047;-38
2021/11/27 01:04:17;;;;;;;53.53;22.55;;;;;;;6.04;83.97;98685.03;4897361;29;20025;-37
2021/11/27 01:06:42;;;;;;;51.63;23.80;;;;;;;6.40;84.17;98689.16;4897454;29;20020;-38
2021/11/27 01:09:10;;;;;;;58.78;25.55;;;;;;;7.20;82.20;98681.97;4897080;29;20481;-38
2021/11/27 01:11:38;;;;;;;50.35;23.30;;;;;;;6.65;82.22;98687.50;4897381;29;20025;-38
2021/11/27 01:14:12;;;;;;;51.25;22.17;;;;;;;6.48;82.71;98677.56;4880282;29;20027;-38
2021/11/27 01:16:39;;;;;;;50.97;22.77;;;;;;;6.28;83.36;98686.25;4896644;29;20024;-38
2021/11/27 01:19:05;;;;;;;53.80;23.90;;;;;;;6.36;83.02;98677.31;4896722;29;20103;-38
2021/11/27 01:21:32;;;;;;;56.78;23.42;;;;;;;6.14;83.77;98669.59;4896156;29;20032;-38
2021/11/27 01:23:58;;;;;;;52.47;22.55;;;;;;;6.28;84.24;98656.41;4896317;29;20052;-38
2021/11/27 01:26:24;;;;;;;56.88;23.95;;;;;;;6.27;85.46;98658.22;4896992;29;20419;-37
2021/11/27 01:28:49;;;;;;;58.67;24.20;;;;;;;7.18;82.35;98669.97;4896888;29;20780;-37
2021/11/27 01:31:15;;;;;;;50.10;21.73;;;;;;;6.78;82.77;98686.72;4879734;29;20103;-37
2021/11/27 01:33:40;;;;;;;52.13;22.85;;;;;;;6.56;82.66;98694.03;4896337;29;20072;-38
2021/11/27 01:36:06;;;;;;;54.33;21.65;;;;;;;6.41;84.16;98698.69;4896330;29;20453;-38
2021/11/27 01:38:33;;;;;;;47.70;21.52;;;;;;;6.45;83.57;98694.63;4896941;29;20029;-37
2021/11/27 01:40:58;;;;;;;49.47;22.08;;;;;;;6.27;85.38;98700.50;4897056;29;20430;-37
2021/11/27 01:43:24;;;;;;;43.55;20.00;;;;;;;6.47;84.29;98682.00;4896883;29;20039;-38
2021/11/27 01:45:51;;;;;;;48.25;20.25;;;;;;;6.24;84.66;98677.94;4896754;29;20028;-38
2021/11/27 01:48:17;;;;;;;45.55;19.98;;;;;;;6.71;85.12;98672.66;4896853;29;20033;-38
2021/11/27 01:50:52;;;;;;;46.20;20.10;;;;;;;6.99;83.93;98661.84;4896968;29;20032;-38
2021/11/27 01:53:17;;;;;;;41.13;18.23;;;;;;;6.62;83.55;98673.88;4896415;29;20029;-37
2021/11/27 01:55:43;;;;;;;38.08;17.52;;;;;;;6.57;84.19;98679.00;4896410;29;20112;-38
2021/11/27 01:58:09;;;;;;;40.63;17.75;;;;;;;6.43;83.66;98673.66;4896598;29;20025;-38
2021/11/27 02:00:36;;;;;;;39.40;17.83;;;;;;;6.50;84.26;98686.91;4895607;29;20028;-38
2021/11/27 02:03:01;;;;;;;44.83;18.33;;;;;;;6.40;84.40;98670.66;4896434;29;20025;-38
2021/11/27 02:05:27;;;;;;;40.88;18.88;;;;;;;6.30;85.20;98671.03;4896243;29;20032;-38
2021/11/27 02:07:52;;;;;;;39.40;18.50;;;;;;;6.25;85.72;98670.84;4896273;29;20107;-38
2021/11/27 02:10:18;;;;;;;43.60;20.05;;;;;;;7.15;83.82;98679.13;4896210;29;20028;-38
2021/11/27 02:12:44;;;;;;;44.88;20.80;;;;;;;6.87;83.52;98660.84;4896617;29;20032;-38
2021/11/27 02:15:10;;;;;;;56.15;22.08;;;;;;;6.90;83.72;98673.66;4897179;29;20053;-37
2021/11/27 02:17:35;;;;;;;45.92;20.65;;;;;;;6.54;83.92;98695.25;4894378;29;20434;-38
2021/11/27 02:20:01;;;;;;;50.70;22.30;;;;;;;6.38;84.59;98693.81;4897025;29;20036;-38
2021/11/27 02:22:26;;;;;;;52.25;21.75;;;;;;;6.37;86.04;98686.91;4896563;29;20126;-38
2021/11/27 02:24:52;;;;;;;55.20;23.08;;;;;;;6.28;85.35;98691.53;4896596;29;20080;-38
2021/11/27 02:27:17;;;;;;;47.70;21.17;;;;;;;6.32;84.99;98697.25;4896623;29;20450;-38
2021/11/27 02:29:44;;;;;;;49.22;20.38;;;;;;;6.64;85.59;98688.56;4896357;29;20113;-38
2021/11/27 02:32:09;;;;;;;47.58;19.33;;;;;;;7.11;85.12;98687.69;4896323;29;20033;-38
2021/11/27 02:34:35;;;;;;;34.65;16.77;;;;;;;6.60;84.75;98670.63;4896447;29;20135;-38
2021/11/27 02:37:02;;;;;;;31.67;14.82;;;;;;;6.44;84.63;98683.25;4894966;29;20136;-38
2021/11/27 02:39:28;;;;;;;36.25;16.42;;;;;;;6.37;85.11;98671.84;4896442;29;20032;-38
2021/11/27 02:41:54;;;;;;;34.55;17.00;;;;;;;6.33;84.58;98675.91;4896327;29;20112;-38
2021/11/27 02:44:24;;;;;;;36.90;16.17;;;;;;;6.34;84.34;98682.00;4910394;29;20055;-37
2021/11/27 02:46:49;;;;;;;37.97;16.05;;;;;;;6.26;84.50;98681.22;4896068;29;20028;-37
2021/11/27 02:49:15;;;;;;;41.58;17.35;;;;;;;6.03;86.14;98704.50;4895870;29;20150;-38
2021/11/27 02:51:40;;;;;;;37.42;17.30;;;;;;;6.48;87.30;98693.41;4895780;29;20029;-37
2021/11/27 02:54:06;;;;;;;39.53;17.15;;;;;;;6.72;86.75;98702.56;4895414;29;20029;-38
2021/11/27 02:56:31;;;;;;;39.53;17.00;;;;;;;6.62;85.22;98701.13;4895723;29;20029;-38
2021/11/27 02:58:57;;;;;;;34.40;16.75;;;;;;;6.35;85.49;98695.03;4895888;29;20029;-37
2021/11/27 03:01:22;;;;;;;33.38;15.45;;;;;;;6.25;85.91;98703.34;4895569;29;20031;-37
2021/11/27 03:03:48;;;;;;;40.30;15.98;;;;;;;6.38;85.42;98672.69;4895249;29;20029;-38
2021/11/27 03:06:13;;;;;;;31.42;15.55;;;;;;;6.36;86.42;98690.53;4895743;29;20025;-38
2021/11/27 03:08:39;;;;;;;33.50;15.07;;;;;;;6.06;86.27;98656.56;4895307;29;20043;-38
2021/11/27 03:11:04;;;;;;;38.47;17.90;;;;;;;6.84;85.83;98674.50;4895354;29;20029;-37
2021/11/27 03:13:32;;;;;;;36.47;15.50;;;;;;;6.93;83.53;98675.06;4895456;29;20032;-36
2021/11/27 03:15:57;;;;;;;36.55;17.75;;;;;;;6.74;85.19;98677.56;4895334;29;20075;-37
2021/11/27 03:18:23;;;;;;;34.95;16.30;;;;;;;6.55;83.97;98684.47;4895942;29;20066;-38
2021/11/27 03:20:50;;;;;;;37.42;16.70;;;;;;;6.40;84.96;98686.50;4896010;29;20024;-38
2021/11/27 03:23:16;;;;;;;33.80;15.70;;;;;;;6.27;86.52;98705.78;4895672;29;20031;-38
2021/11/27 03:25:41;;;;;;;34.33;16.08;;;;;;;6.53;85.23;98701.53;4895370;29;20025;-38
2021/11/27 03:28:07;;;;;;;33.03;16.02;;;;;;;6.53;85.82;98701.53;4895581;29;20020;-39
2021/11/27 03:30:32;;;;;;;34.95;15.73;;;;;;;6.28;86.35;98717.16;4895458;29;20066;-38
2021/11/27 03:32:58;;;;;;;36.92;16.10;;;;;;;6.65;85.20;98673.50;4895119;29;20048;-39
2021/11/27 03:35:23;;;;;;;39.70;17.13;;;;;;;6.81;84.50;98677.53;4895226;29;20092;-38
2021/11/27 03:37:49;;;;;;;40.30;17.58;;;;;;;6.53;84.22;98701.53;4894823;29;20416;-38
2021/11/27 03:40:14;;;;;;;41.92;18.52;;;;;;;6.67;83.99;98719.03;4895193;29;20410;-38
2021/11/27 03:42:40;;;;;;;39.47;16.95;;;;;;;6.22;86.00;98716.94;4895090;29;20033;-38
2021/11/27 03:45:08;;;;;;;45.80;18.48;;;;;;;6.15;85.85;98700.28;4894692;29;20029;-38
2021/11/27 03:47:33;;;;;;;46.58;19.60;;;;;;;6.32;88.06;98710.47;4894918;29;20048;-38
2021/11/27 03:49:59;;;;;;;49.70;20.05;;;;;;;7.20;85.41;98726.94;4894975;29;20493;-38
2021/11/27 03:52:24;;;;;;;45.10;19.17;;;;;;;7.00;82.88;98705.78;4895529;29;20024;-39
2021/11/27 03:54:50;;;;;;;41.92;18.80;;;;;;;6.75;83.84;98696.88;4878294;29;20032;-39
2021/11/27 03:57:15;;;;;;;41.67;17.55;;;;;;;6.40;85.72;98702.34;4894569;29;20642;-38
2021/11/27 03:59:41;;;;;;;36.67;16.98;;;;;;;6.40;85.22;98718.22;4894912;29;20025;-37
2021/11/27 04:02:07;;;;;;;40.25;17.92;;;;;;;6.35;85.74;98696.84;4894767;29;20025;-38
2021/11/27 04:04:34;;;;;;;43.10;17.75;;;;;;;6.33;85.90;98728.75;4894398;29;20029;-39
2021/11/27 04:07:00;;;;;;;42.38;18.35;;;;;;;6.13;87.34;98699.69;4894802;29;20025;-38
2021/11/27 04:09:25;;;;;;;42.58;18.25;;;;;;;6.05;87.77;98721.81;4894966;29;20060;-38
2021/11/27 04:11:51;;;;;;;42.88;18.73;;;;;;;5.99;87.89;98693.53;4894303;29;20025;-38
2021/11/27 04:14:16;;;;;;;50.75;20.40;;;;;;;6.62;86.51;98714.34;4894734;29;20028;-39
2021/11/27 04:16:42;;;;;;;47.22;19.05;;;;;;;6.67;86.35;98719.03;4894207;29;20560;-39
2021/11/27 04:19:07;;;;;;;46.58;19.55;;;;;;;6.41;87.62;98703.97;4894790;29;20024;-38
2021/11/27 04:21:33;;;;;;;50.92;20.02;;;;;;;6.59;86.38;98701.56;4894664;29;20024;-38
2021/11/27 04:23:58;;;;;;;49.85;20.80;;;;;;;6.46;86.33;98690.97;4897600;29;20032;-39
2021/11/27 04:26:24;;;;;;;49.63;20.50;;;;;;;6.33;87.26;98712.91;4898447;29;20029;-38
2021/11/27 04:28:49;;;;;;;52.03;21.35;;;;;;;6.46;87.11;98694.41;4898730;29;20035;-39
2021/11/27 04:31:18;;;;;;;55.40;21.60;;;;;;;6.51;85.98;98714.16;4881625;29;20139;-39
2021/11/27 04:33:47;;;;;;;46.20;20.70;;;;;;;6.49;85.79;98669.41;4898630;29;20049;-44
2021/11/27 04:36:12;;;;;;;53.95;21.00;;;;;;;6.38;86.86;98693.81;4897447;29;20414;-39
2021/11/27 04:38:38;;;;;;;49.72;20.25;;;;;;;6.41;86.37;98706.63;4898697;29;20039;-39
2021/11/27 04:41:03;;;;;;;52.10;21.33;;;;;;;6.20;87.45;98704.97;4898650;29;20059;-38
2021/11/27 04:43:29;;;;;;;53.75;21.60;;;;;;;6.25;87.68;98684.84;4897828;29;20028;-39
2021/11/27 04:45:54;;;;;;;51.42;21.17;;;;;;;6.18;87.97;98707.78;4897294;29;20028;-39
2021/11/27 04:48:20;;;;;;;55.78;21.95;;;;;;;6.19;87.39;98690.94;4898391;29;20076;-38
2021/11/27 04:50:45;;;;;;;55.67;21.20;;;;;;;6.20;87.28;98708.41;4898050;29;20492;-39
2021/11/27 04:53:11;;;;;;;48.88;20.48;;;;;;;6.07;87.63;98730.34;4897969;29;20136;-39
2021/11/27 04:55:36;;;;;;;50.00;19.65;;;;;;;6.35;85.74;98705.59;4896855;29;20121;-38
2021/11/27 04:58:02;;;;;;;58.90;22.13;;;;;;;6.24;85.84;98725.50;4897660;29;20508;-38
2021/11/27 05:00:32;;;;;;;48.22;20.42;;;;;;;6.26;86.70;98760.47;4898436;29;20028;-38
2021/11/27 05:02:57;;;;;;;52.63;21.83;;;;;;;6.23;87.26;98723.06;4897830;29;20028;-38
2021/11/27 05:05:23;;;;;;;50.88;21.52;;;;;;;6.06;86.48;98709.41;4898096;29;20413;-38
2021/11/27 05:07:49;;;;;;;44.60;19.98;;;;;;;6.03;87.12;98736.19;4898089;29;20052;-39
2021/11/27 05:10:15;;;;;;;49.80;20.02;;;;;;;6.05;87.87;98718.31;4897822;29;20080;-38
2021/11/27 05:12:40;;;;;;;54.03;20.50;;;;;;;5.90;87.79;98736.13;4897967;29;20040;-39
2021/11/27 05:15:06;;;;;;;49.58;20.60;;;;;;;5.93;87.58;98748.94;4897753;29;20024;-38
2021/11/27 05:17:32;;;;;;;60.65;22.58;;;;;;;5.90;87.86;98730.84;4898205;29;20495;-39
2021/11/27 05:19:58;;;;;;;69.13;24.08;;;;;;;6.16;87.80;98769.78;4898493;29;20028;-39
2021/11/27 05:22:23;;;;;;;67.40;24.02;;;;;;;6.01;87.44;98741.69;4897507;29;20522;-38
2021/11/27 05:24:49;;;;;;;76.88;25.27;;;;;;;6.76;86.82;98754.00;4897830;29;20401;-38
2021/11/27 05:27:15;;;;;;;70.95;24.90;;;;;;;6.60;86.36;98740.19;4897635;29;20032;-38
2021/11/27 05:29:41;;;;;;;64.70;23.70;;;;;;;6.33;86.11;98780.81;4897510;29;20033;-38
2021/11/27 05:32:07;;;;;;;63.78;21.85;;;;;;;6.12;87.16;98808.19;4897552;29;20111;-37
2021/11/27 05:34:33;;;;;;;55.50;21.38;;;;;;;6.15;87.77;98811.25;4895911;29;20020;-38
2021/11/27 05:37:03;;;;;;;53.30;21.00;;;;;;;6.23;87.97;98799.69;4897239;29;20481;-38
2021/11/27 05:39:29;;;;;;;;;;;;;;;6.36;86.59;98791.78;4882343;29;20111;-37
2021/11/27 05:41:54;;;;;;;54.40;19.98;;;;;;;6.48;87.14;98799.94;4897492;29;19994;-38
2021/11/27 05:44:20;;;;;;;51.10;20.88;;;;;;;6.84;85.58;98806.72;4896882;29;20374;-38
2021/11/27 05:46:45;;;;;;;45.85;18.90;;;;;;;6.59;84.43;98791.44;4897926;29;20024;-39
2021/11/27 05:49:11;;;;;;;47.63;19.05;;;;;;;6.65;84.33;98789.81;4897092;29;20032;-38
2021/11/27 05:51:36;;;;;;;43.15;18.20;;;;;;;6.29;85.60;98808.66;4897167;29;20140;-39
2021/11/27 05:54:01;;;;;;;50.88;20.17;;;;;;;6.22;86.72;98816.53;4897401;29;20025;-39
2021/11/27 05:56:27;;;;;;;59.53;22.17;;;;;;;6.11;86.68;98817.09;4896395;29;20035;-38
2021/11/27 05:58:52;;;;;;;70.60;25.85;;;;;;;6.98;85.27;98813.63;4897231;29;20512;-37
2021/11/27 06:01:18;;;;;;;62.88;24.52;;;;;;;6.76;85.48;98834.19;4897009;29;20529;-39
2021/11/27 06:03:43;;;;;;;63.85;24.92;;;;;;;6.42;86.05;98848.34;4896253;29;20039;-38
2021/11/27 06:06:09;;;;;;;73.43;26.10;;;;;;;6.03;87.72;98855.06;4896446;29;20039;-37
2021/11/27 06:08:34;;;;;;;65.18;25.25;;;;;;;6.26;87.73;98855.59;4896684;29;20056;-37
2021/11/27 06:11:00;;;;;;;58.03;23.90;;;;;;;5.52;87.27;98779.63;4896056;29;20115;-38
2021/11/27 06:13:25;;;;;;;65.22;23.65;;;;;;;6.02;88.79;98877.22;4879635;29;20036;-37
2021/11/27 06:15:51;;;;;;;64.03;22.63;;;;;;;6.16;88.50;98859.59;4896107;29;20073;-38
2021/11/27 06:18:16;;;;;;;65.63;25.02;;;;;;;6.13;87.79;98865.25;4891464;29;20548;-38
2021/11/27 06:20:42;;;;;;;71.32;27.15;;;;;;;6.71;87.86;98854.31;4877968;29;20084;-38
2021/11/27 06:23:07;;;;;;;65.38;24.50;;;;;;;6.96;85.10;98870.41;4887684;29;20500;-38
2021/11/27 06:25:33;;;;;;;62.30;23.23;;;;;;;6.79;84.82;98873.44;4870205;29;20426;-38
2021/11/27 06:27:58;;;;;;;66.22;23.95;;;;;;;6.50;86.34;98884.34;4869901;29;20025;-39
2021/11/27 06:30:24;;;;;;;55.67;21.80;;;;;;;6.33;87.18;98895.25;4882638;29;20032;-40
2021/11/27 06:32:49;;;;;;;69.07;24.35;;;;;;;6.19;86.30;98889.09;4862786;29;20129;-39
2021/11/27 06:35:15;;;;;;;65.07;25.00;;;;;;;6.26;86.88;98894.38;4868839;29;20028;-39
2021/11/27 06:37:40;;;;;;;65.85;23.73;;;;;;;6.12;86.81;98882.94;4871287;29;20105;-38
2021/11/27 06:40:06;;;;;;;60.50;23.30;;;;;;;6.09;88.05;98891.25;4875715;29;20116;-39
2021/11/27 06:42:32;;;;;;;159.57;73.63;;;;;;;6.12;88.70;98875.03;4865735;29;20027;-38
2021/11/27 06:44:57;;;;;;;95.45;39.65;;;;;;;7.24;85.14;98876.34;4867162;29;20025;-38
2021/11/27 06:47:23;;;;;;;79.03;32.72;;;;;;;6.80;85.65;98872.44;4866604;29;20045;-39
2021/11/27 06:49:49;;;;;;;179.30;82.25;;;;;;;6.58;87.43;98868.28;4866656;29;20108;-38
2021/11/27 06:52:15;;;;;;;61.63;24.50;;;;;;;6.74;87.55;98852.09;4867590;29;20506;-39
2021/11/27 06:54:40;;;;;;;61.95;22.10;;;;;;;6.89;87.52;98854.53;4864909;29;20053;-39
2021/11/27 06:57:06;;;;;;;58.53;22.02;;;;;;;6.97;86.37;98866.78;4864928;29;20032;-39
2021/11/27 06:59:32;;;;;;;50.65;20.92;;;;;;;6.84;86.64;98867.56;4866740;29;20025;-38
2021/11/27 07:01:57;;;;;;;53.38;22.73;;;;;;;6.70;86.72;98866.72;4867900;29;20171;-39
2021/11/27 07:04:23;;;;;;;53.45;23.27;;;;;;;6.73;87.24;98862.84;4865867;29;20033;-39
2021/11/27 07:06:48;;;;;;;56.40;23.05;;;;;;;6.80;86.84;98863.69;4875915;29;20032;-38
2021/11/27 07:09:14;;;;;;;53.75;22.33;;;;;;;6.65;86.36;98869.13;4876738;29;20100;-39
2021/11/27 07:11:39;;;;;;;55.25;22.10;;;;;;;6.79;87.32;98877.91;4888575;29;20053;-40
2021/11/27 07:14:05;;;;;;;56.15;21.60;;;;;;;6.91;85.71;98880.78;4876556;29;20017;-37
2021/11/27 07:16:31;;;;;;;48.42;20.05;;;;;;;6.81;86.36;98878.53;4876346;29;20071;-38
2021/11/27 07:18:56;;;;;;;53.88;20.45;;;;;;;6.72;86.61;98874.44;4877028;29;20025;-38
2021/11/27 07:21:21;;;;;;;53.45;22.73;;;;;;;6.89;86.10;98896.03;4876414;29;20065;-38
2021/11/27 07:23:47;;;;;;;99.00;43.88;;;;;;;6.88;85.98;98905.00;4876015;29;20513;-38
2021/11/27 07:26:12;;;;;;;106.70;45.90;;;;;;;6.78;85.66;98897.44;4875842;29;20025;-38
2021/11/27 07:28:38;;;;;;;58.40;25.17;;;;;;;6.83;85.14;98895.00;4890186;29;20080;-39
2021/11/27 07:31:03;;;;;;;52.85;21.77;;;;;;;6.90;85.02;98924.94;4876255;29;20036;-38
2021/11/27 07:33:29;;;;;;;52.53;20.15;;;;;;;6.78;86.19;98931.84;4887739;29;20115;-38
2021/11/27 07:35:54;;;;;;;46.08;18.88;;;;;;;6.78;86.90;98922.06;4893418;29;20107;-39
2021/11/27 07:38:20;;;;;;;43.20;18.23;;;;;;;6.58;85.30;98881.50;4886778;29;20036;-39
2021/11/27 07:40:46;;;;;;;54.22;23.80;;;;;;;6.80;85.47;98913.94;4887072;29;20125;-39
2021/11/27 07:43:11;;;;;;;48.40;21.70;;;;;;;6.89;85.51;98912.72;4882863;29;20469;-39
2021/11/27 07:45:36;;;;;;;54.30;21.52;;;;;;;7.72;84.63;98898.34;4883650;29;20033;-37
2021/11/27 07:48:02;;;;;;;45.53;19.98;;;;;;;7.40;83.70;98896.31;4883450;29;20347;-38
2021/11/27 07:50:29;;;;;;;45.55;19.08;;;;;;;7.24;85.51;98892.22;4882606;29;20029;-38
2021/11/27 07:52:54;;;;;;;45.92;20.02;;;;;;;7.19;85.35;98913.19;4885800;29;20032;-38
2021/11/27 07:55:20;;;;;;;45.25;19.00;;;;;;;7.14;85.36;98891.81;4884681;29;20088;-39
2021/11/27 07:57:45;;;;;;;45.10;18.50;;;;;;;7.05;86.34;98875.31;4882095;29;20469;-38
2021/11/27 08:00:11;;;;;;;49.50;20.20;;;;;;;7.02;85.88;98866.97;4883270;29;20088;-37
2021/11/27 08:02:37;;;;;;;57.22;21.58;;;;;;;7.12;85.54;98864.75;4884743;29;20033;-39
2021/11/27 08:05:03;;;;;;;51.72;20.02;;;;;;;7.03;85.98;98882.63;4874851;29;20043;-38
2021/11/27 08:07:28;;;;;;;47.47;20.38;;;;;;;7.12;85.44;98866.56;4875349;29;20101;-38
2021/11/27 08:09:55;;;;;;;48.20;21.10;;;;;;;7.12;84.25;98867.41;4875191;29;20020;-39
2021/11/27 08:12:21;;;;;;;47.08;20.00;;;;;;;7.37;82.30;98870.25;4875387;29;20422;-38
2021/11/27 08:14:46;;;;;;;44.05;18.90;;;;;;;7.03;83.95;98880.00;4874266;29;20520;-38
2021/11/27 08:17:12;;;;;;;47.28;19.77;;;;;;;6.90;84.23;98892.38;4875423;29;20446;-37
2021/11/27 08:19:37;;;;;;;50.10;20.90;;;;;;;7.05;83.83;98880.59;4874225;29;20454;-37
2021/11/27 08:22:03;;;;;;;52.35;20.58;;;;;;;6.90;85.28;98866.75;4879972;29;20055;-38
2021/11/27 08:24:28;;;;;;;55.08;20.95;;;;;;;7.05;84.80;98871.88;4882377;29;20021;-37
2021/11/27 08:26:54;;;;;;;47.00;20.63;;;;;;;7.02;83.39;98865.13;4874102;29;20025;-39
2021/11/27 08:29:19;;;;;;;52.50;22.55;;;;;;;6.90;83.91;98864.09;4874435;29;20029;-39
2021/11/27 08:31:46;;;;;;;51.75;23.35;;;;;;;7.00;83.23;98877.75;4874769;29;20036;-38
2021/11/27 08:34:12;;;;;;;57.47;25.65;;;;;;;6.95;82.98;98880.19;4873571;29;20057;-38
2021/11/27 08:36:38;;;;;;;56.63;24.55;;;;;;;6.95;82.77;98882.00;4886873;29;20029;-38
2021/11/27 08:39:03;;;;;;;59.05;25.45;;;;;;;6.90;84.46;98869.41;4892689;29;20110;-38
2021/11/27 08:41:29;;;;;;;55.55;24.95;;;;;;;7.78;81.34;98878.97;4893040;29;20462;-38
2021/11/27 08:43:54;;;;;;;48.35;22.92;;;;;;;7.36;80.90;98881.03;4889764;29;20091;-37
2021/11/27 08:46:20;;;;;;;53.08;23.75;;;;;;;7.17;82.20;98880.81;4892170;29;20033;-39
2021/11/27 08:48:45;;;;;;;55.20;23.25;;;;;;;7.22;81.74;98873.09;4875603;29;20523;-38
2021/11/27 08:51:11;;;;;;;52.30;23.40;;;;;;;7.13;81.83;98876.16;4892348;29;20386;-39
2021/11/27 08:53:37;;;;;;;57.55;24.75;;;;;;;6.92;82.90;98877.13;4892295;29;20039;-38
2021/11/27 08:56:05;;;;;;;52.88;23.58;;;;;;;7.10;81.94;98876.53;4891902;29;20041;-39
2021/11/27 08:58:31;;;;;;;56.97;24.65;;;;;;;6.80;82.57;98855.75;4893770;29;20025;-39
2021/11/27 09:00:56;;;;;;;62.22;24.17;;;;;;;7.16;81.29;98876.56;4893819;29;20047;-39
2021/11/27 09:03:22;;;;;;;60.47;25.77;;;;;;;6.82;83.21;98867.75;4892391;29;20032;-39
2021/11/27 09:05:47;;;;;;;69.25;26.13;;;;;;;6.90;83.65;98866.75;4893463;29;20037;-38
2021/11/27 09:08:13;;;;;;;59.75;25.13;;;;;;;6.80;83.16;98863.69;4878840;29;20104;-38
2021/11/27 09:10:38;;;;;;;53.70;24.77;;;;;;;6.67;83.75;98861.81;4896432;29;20025;-39
2021/11/27 09:13:04;;;;;;;63.00;24.88;;;;;;;6.56;84.12;98886.19;4878179;29;20033;-38
2021/11/27 09:15:29;;;;;;;58.58;25.65;;;;;;;6.63;84.71;98871.97;4892425;29;20399;-38
2021/11/27 09:17:55;;;;;;;57.80;25.58;;;;;;;6.93;86.37;98878.75;4878173;29;20021;-38
2021/11/27 09:20:20;;;;;;;58.90;24.13;;;;;;;6.74;83.71;98872.41;4878362;29;20055;-38
2021/11/27 09:22:46;;;;;;;63.67;26.20;;;;;;;6.70;84.72;98873.81;4876610;29;20038;-38
2021/11/27 09:25:11;;;;;;;60.70;25.92;;;;;;;6.82;84.91;98864.31;4880609;29;20089;-39
2021/11/27 09:27:37;;;;;;;61.97;26.40;;;;;;;7.78;81.11;98850.66;4893059;29;20033;-39
2021/11/27 09:30:07;;;;;;;62.08;25.88;;;;;;;7.56;81.16;98836.84;4893961;29;20021;-37
2021/11/27 09:32:33;;;;;;;64.57;26.33;;;;;;;7.29;83.88;98841.34;4895156;29;20048;-38
2021/11/27 09:34:59;;;;;;;60.13;25.15;;;;;;;7.30;82.97;98853.56;4894796;29;20077;-39
2021/11/27 09:37:24;;;;;;;55.25;24.58;;;;;;;7.31;82.89;98844.59;4893958;29;20032;-39
2021/11/27 09:39:50;;;;;;;56.97;25.48;;;;;;;7.35;82.66;98832.59;4896127;29;20445;-39
2021/11/27 09:42:16;;;;;;;67.47;26.38;;;;;;;7.41;84.19;98839.72;4894328;29;20489;-40
2021/11/27 09:44:47;;;;;;;66.25;26.95;;;;;;;7.58;83.39;98836.66;4895532;29;20028;-38
2021/11/27 09:47:12;;;;;;;59.55;26.80;;;;;;;7.49;81.00;98846.63;4895722;29;20025;-39
2021/11/27 09:49:37;;;;;;;64.80;27.50;;;;;;;7.49;80.95;98843.97;4895366;29;20035;-40
2021/11/27 09:52:03;;;;;;;66.22;30.00;;;;;;;7.48;82.79;98820.34;4895522;29;20025;-39
2021/11/27 09:54:30;;;;;;;66.15;29.45;;;;;;;8.22;79.62;98838.50;4893234;29;20564;-39
2021/11/27 09:56:55;;;;;;;67.97;29.27;;;;;;;7.48;80.91;98804.47;4862772;29;20076;-39
2021/11/27 09:59:21;;;;;;;57.70;26.88;;;;;;;7.59;81.54;98840.91;4895839;29;20127;-38
2021/11/27 10:01:50;;;;;;;67.47;30.02;;;;;;;7.69;80.92;98833.38;4893678;29;20143;-38
2021/11/27 10:04:15;;;;;;;62.47;27.45;;;;;;;7.20;81.42;98830.16;4893584;29;20072;-37
2021/11/27 10:06:42;;;;;;;66.18;30.10;;;;;;;7.17;82.50;98850.91;4877551;29;20640;-37
2021/11/27 10:09:13;;;;;;;65.63;28.30;;;;;;;7.49;81.75;98837.88;4893225;29;20028;-39
2021/11/27 10:11:38;;;;;;;67.50;29.20;;;;;;;7.85;80.57;98839.25;4894421;29;20476;-38
2021/11/27 10:14:05;;;;;;;64.07;28.55;;;;;;;7.60;80.80;98831.97;4893048;29;20021;-39
2021/11/27 10:16:32;;;;;;;57.10;26.63;;;;;;;7.32;81.86;98826.88;4894589;29;20040;-38
2021/11/27 10:19:09;;;;;;;64.80;28.95;;;;;;;7.47;82.32;98822.19;4895110;29;20065;-37
2021/11/27 10:21:35;;;;;;;66.75;28.52;;;;;;;7.36;81.82;98828.09;4889897;29;20033;-39
2021/11/27 10:24:00;;;;;;;62.38;28.75;;;;;;;7.50;81.98;98819.16;4881337;29;20032;-38
2021/11/27 10:26:34;;;;;;;73.50;31.48;;;;;;;7.39;81.57;98817.13;4864016;29;20112;-40
2021/11/27 10:29:13;;;;;;;66.10;28.10;;;;;;;7.30;82.00;98821.78;4882093;29;20107;-38
2021/11/27 10:31:38;;;;;;;61.78;28.42;;;;;;;7.53;80.43;98821.34;4882814;29;20031;-39
2021/11/27 10:34:03;;;;;;;69.18;30.42;;;;;;;7.67;81.14;98794.84;4883644;29;20049;-37
2021/11/27 10:36:32;;;;;;;69.57;29.55;;;;;;;7.98;79.12;98807.41;4885066;29;20100;-38
2021/11/27 10:39:07;;;;;;;66.05;29.02;;;;;;;7.94;79.78;98792.94;4886118;29;20025;-39
2021/11/27 10:41:36;;;;;;;66.28;29.98;;;;;;;8.66;78.31;98798.94;4884197;29;20496;-39
2021/11/27 10:44:04;;;;;;;72.03;29.10;;;;;;;8.57;77.64;98785.13;4882776;29;20032;-37
2021/11/27 10:46:31;;;;;;;72.07;31.85;;;;;;;8.50;77.87;98797.59;4865551;29;20083;-39
2021/11/27 10:48:57;;;;;;;74.00;31.30;;;;;;;8.02;80.12;98814.72;4885110;29;20133;-39
2021/11/27 10:51:22;;;;;;;68.63;29.40;;;;;;;7.95;80.01;98826.38;4891571;29;20025;-39
2021/11/27 10:53:55;;;;;;;68.90;29.83;;;;;;;8.01;79.68;98826.34;4893305;29;20029;-41
2021/11/27 10:56:21;;;;;;;63.13;28.85;;;;;;;7.78;80.16;98810.91;4893256;29;20024;-38
2021/11/27 10:59:00;;;;;;;64.00;29.58;;;;;;;8.10;78.90;98805.72;4894499;29;20382;-38
2021/11/27 11:01:25;;;;;;;66.38;29.45;;;;;;;8.16;78.64;98802.22;4894085;29;20416;-38
2021/11/27 11:03:51;;;;;;;69.72;30.25;;;;;;;7.87;79.30;98810.72;4892895;29;20478;-38
2021/11/27 11:06:23;;;;;;;67.88;29.45;;;;;;;8.10;78.90;98800.41;4893668;29;20387;-39
2021/11/27 11:08:49;;;;;;;75.50;33.72;;;;;;;8.59;78.57;98817.53;4893565;29;20017;-38
2021/11/27 11:11:21;;;;;;;67.10;28.77;;;;;;;9.02;75.33;98810.72;4893755;29;20104;-38
2021/11/27 11:13:57;;;;;;;70.18;29.73;;;;;;;8.55;77.04;98800.44;4891540;29;20498;-40
2021/11/27 11:16:24;;;;;;;62.05;28.05;;;;;;;8.35;77.60;98795.19;4882362;29;20036;-38
2021/11/27 11:18:54;;;;;;;62.45;28.42;;;;;;;8.25;77.28;98789.56;4895094;29;20028;-38